createdAt,value
2023-05-06T00:04:59.574Z,89.42
2023-05-06T00:11:19.618Z,89.23
2023-05-06T00:17:42.720Z,89.22
2023-05-06T00:24:02.595Z,89.27
2023-05-06T00:30:25.605Z,90.1
2023-05-06T00:36:45.818Z,90.14
2023-05-06T00:43:08.606Z,90.14
2023-05-06T00:49:28.583Z,89.75
2023-05-06T00:55:51.686Z,90.09
2023-05-06T01:02:11.596Z,90.04
2023-05-06T01:08:34.606Z,90.23
2023-05-06T01:14:54.687Z,89.9
2023-05-06T01:21:17.579Z,89.95
2023-05-06T01:27:37.609Z,89.67
2023-05-06T01:34:00.783Z,90.04
2023-05-06T01:40:20.617Z,89.99
2023-05-06T01:46:43.637Z,89.58
2023-05-06T01:53:03.700Z,89.86
2023-05-06T01:59:27.072Z,89.71
2023-05-06T02:05:46.640Z,89.88
2023-05-06T02:12:09.663Z,90.31
2023-05-06T02:18:29.625Z,90.25
2023-05-06T02:24:52.630Z,90.39
2023-05-06T02:31:12.887Z,90.15
2023-05-06T02:37:35.669Z,90.42
2023-05-06T02:43:55.576Z,90.29
2023-05-06T02:50:18.641Z,90.01
2023-05-06T02:56:38.633Z,90.1
2023-05-06T03:03:01.603Z,90.02
2023-05-06T03:09:21.654Z,90.35
2023-05-06T03:15:44.651Z,90.36
2023-05-06T03:22:04.643Z,90.58
2023-05-06T03:38:50.580Z,90.51
2023-05-06T03:45:10.760Z,90.71
2023-05-06T03:51:33.580Z,90.78
2023-05-06T03:57:53.733Z,90.63
2023-05-06T04:04:16.568Z,90.58
2023-05-06T04:10:36.578Z,90.34
2023-05-06T04:16:59.665Z,90.34
2023-05-06T04:23:19.574Z,90.42
2023-05-06T04:29:42.575Z,90.7
2023-05-06T04:36:02.638Z,90.79
2023-05-06T04:42:25.599Z,90.78
2023-05-06T04:48:45.624Z,90.93
2023-05-06T04:55:08.861Z,90.99
2023-05-06T05:01:28.747Z,90.64
2023-05-06T05:07:51.625Z,90.24
2023-05-06T05:14:11.688Z,90.3
2023-05-06T05:20:34.649Z,90.3
2023-05-06T05:26:54.680Z,90.25
2023-05-06T05:33:17.814Z,90.03
2023-05-06T05:39:37.612Z,90.1
2023-05-06T05:46:00.639Z,90.45
2023-05-06T05:52:20.644Z,89.86
2023-05-06T05:58:43.615Z,89.91
2023-05-06T06:05:03.576Z,89.83
2023-05-06T06:11:26.716Z,89.64
2023-05-06T06:17:46.627Z,89.48
2023-05-06T06:24:09.569Z,89.6
2023-05-06T06:30:29.678Z,89.99
2023-05-06T06:36:52.592Z,90.1
2023-05-06T06:43:12.599Z,89.88
2023-05-06T06:49:35.673Z,90
2023-05-06T06:55:55.588Z,89.22
2023-05-06T07:02:18.643Z,89.57
2023-05-06T07:08:38.622Z,89.29
2023-05-06T07:15:01.610Z,89.34
2023-05-06T07:21:21.573Z,89.04
2023-05-06T07:27:44.619Z,88.69
2023-05-06T07:34:04.571Z,88.34
2023-05-06T07:40:27.573Z,87.59
2023-05-06T07:46:47.706Z,86.22
2023-05-06T07:53:10.599Z,85
2023-05-06T07:59:30.613Z,83.59
2023-05-06T08:05:53.712Z,82.77
2023-05-06T08:12:13.569Z,80.91
2023-05-06T08:18:36.605Z,80.55
2023-05-06T08:24:56.786Z,79.03
2023-05-06T08:31:19.587Z,74.08
2023-05-06T08:37:39.592Z,76.17
2023-05-06T08:44:02.721Z,74.87
2023-05-06T09:06:30.668Z,71.64
2023-05-06T09:12:53.582Z,71.45
2023-05-06T09:19:13.598Z,72.72
2023-05-06T09:25:36.675Z,67.32
2023-05-06T09:31:56.570Z,67.82
2023-05-06T09:38:19.610Z,65.33
2023-05-06T09:44:39.751Z,62.49
2023-05-06T09:51:02.605Z,63.79
2023-05-06T09:57:22.603Z,62.33
2023-05-06T10:03:45.800Z,62.66
2023-05-06T10:10:05.579Z,57.73
2023-05-06T10:16:28.668Z,62.53
2023-05-06T10:22:48.630Z,54.65
2023-05-06T10:29:11.569Z,58.17
2023-05-06T10:35:31.608Z,54.12
2023-05-06T10:41:54.679Z,57.87
2023-05-06T10:48:14.576Z,53.11
2023-05-06T10:54:37.593Z,56.48
2023-05-06T11:00:57.733Z,54.38
2023-05-06T11:07:20.645Z,46.84
2023-05-06T11:13:40.577Z,48.18
2023-05-06T11:20:03.685Z,47.58
2023-05-06T11:26:23.747Z,49.86
2023-05-06T11:32:46.687Z,49.92
2023-05-06T11:39:06.740Z,47.85
2023-05-06T11:45:29.639Z,51.95
2023-05-06T11:51:49.589Z,47.99
2023-05-06T11:58:12.609Z,44.2
2023-05-06T12:04:32.610Z,45.02
2023-05-06T12:10:55.616Z,42.1
2023-05-06T12:17:15.660Z,45.65
2023-05-06T12:23:38.668Z,48.89
2023-05-06T12:29:58.597Z,46.55
2023-05-06T12:36:21.688Z,43.94
2023-05-06T12:42:41.604Z,40.85
2023-05-06T12:49:04.578Z,41.32
2023-05-06T12:55:24.680Z,42.58
2023-05-06T13:01:47.589Z,43.73
2023-05-06T13:08:07.579Z,41.99
2023-05-06T13:14:30.629Z,44.28
2023-05-06T13:20:50.575Z,45.3
2023-05-06T13:27:13.570Z,48.53
2023-05-06T13:33:33.713Z,49.18
2023-05-06T13:39:56.578Z,48.56
2023-05-06T13:46:16.619Z,49.11
2023-05-06T13:52:39.596Z,50.98
2023-05-06T13:58:59.582Z,46.33
2023-05-06T14:05:22.675Z,46.75
2023-05-06T14:11:42.743Z,47.09
2023-05-06T14:18:05.683Z,57.41
2023-05-06T14:24:25.588Z,64.32
2023-05-06T14:46:55.683Z,70.47
2023-05-06T14:53:18.576Z,70.43
2023-05-06T14:59:38.649Z,70.74
2023-05-06T15:06:01.740Z,70.6
2023-05-06T15:12:21.574Z,69.68
2023-05-06T15:18:44.619Z,68.72
2023-05-06T15:25:04.652Z,69.63
2023-05-06T15:31:27.724Z,70.04
2023-05-06T15:37:47.570Z,69.79
2023-05-06T15:44:10.616Z,70.93
2023-05-06T15:50:33.657Z,71.04
2023-05-06T15:56:53.581Z,72.51
2023-05-06T16:03:13.809Z,73.67
2023-05-06T16:09:36.677Z,74.29
2023-05-06T16:15:56.678Z,73.99
2023-05-06T16:22:19.690Z,73.35
2023-05-06T16:28:40.266Z,74.11
2023-05-06T16:35:02.669Z,74.03
2023-05-06T16:41:22.772Z,74.12
2023-05-06T16:47:45.700Z,74.53
2023-05-06T16:54:05.610Z,74.37
2023-05-06T17:00:28.597Z,75.08
2023-05-06T17:06:48.653Z,76.27
2023-05-06T17:13:11.590Z,76.31
2023-05-06T17:19:31.882Z,75.95
2023-05-06T17:25:54.923Z,76.4
2023-05-06T17:32:14.608Z,77.1
2023-05-06T17:38:37.817Z,77.21
2023-05-06T17:44:57.559Z,77.38
2023-05-06T17:51:20.640Z,77.47
2023-05-06T17:57:40.775Z,78.17
2023-05-06T18:04:03.752Z,78.1
2023-05-06T18:10:23.657Z,78.75
2023-05-06T18:16:46.860Z,77.52
2023-05-06T18:23:06.578Z,77.36
2023-05-06T18:29:29.602Z,77.46
2023-05-06T18:35:49.745Z,77.69
2023-05-06T18:42:12.557Z,78.44
2023-05-06T18:48:32.698Z,79.21
2023-05-06T18:54:55.592Z,79.5
2023-05-06T19:01:15.590Z,79.93
2023-05-06T19:07:38.660Z,80.23
2023-05-06T19:13:58.687Z,80.49
2023-05-06T19:20:21.588Z,81.08
2023-05-06T19:26:41.627Z,81.51
2023-05-06T19:33:04.763Z,81.76
2023-05-06T19:39:24.648Z,81.87
2023-05-06T19:45:47.641Z,81.73
2023-05-06T20:01:18.830Z,82.35
2023-05-06T20:07:38.605Z,82.86
2023-05-06T20:14:01.588Z,82.68
2023-05-06T20:20:21.786Z,82.25
2023-05-06T20:26:44.614Z,82.43
2023-05-06T20:33:04.596Z,82.74
2023-05-06T20:39:27.713Z,82.76
2023-05-06T20:45:47.630Z,82.51
2023-05-06T20:52:10.618Z,82.64
2023-05-06T20:58:30.746Z,83.07
2023-05-06T21:04:53.628Z,82.77
2023-05-06T21:11:13.625Z,83.34
2023-05-06T21:17:36.772Z,83.68
2023-05-06T21:23:56.738Z,83.69
2023-05-06T21:30:19.636Z,84.24
2023-05-06T21:36:39.684Z,84.1
2023-05-06T21:43:02.616Z,83.85
2023-05-06T21:49:22.565Z,83.57
2023-05-06T21:55:45.753Z,83.33
2023-05-06T22:19:59.591Z,84.26
2023-05-06T22:26:19.575Z,84.94
2023-05-06T22:32:42.641Z,85.47
2023-05-06T22:39:02.609Z,86.21
2023-05-06T22:45:25.604Z,86.7
2023-05-06T22:51:45.590Z,86.61
2023-05-06T22:58:08.691Z,86.57
2023-05-06T23:04:28.668Z,85.92
2023-05-06T23:10:51.586Z,85.99
2023-05-06T23:17:11.746Z,85.81
2023-05-06T23:23:34.567Z,86.08
2023-05-06T23:29:54.677Z,85.93
2023-05-06T23:36:17.654Z,86.09
2023-05-06T23:42:37.675Z,86.47
2023-05-06T23:49:00.640Z,86.51
2023-05-06T23:55:20.690Z,86.73
